Terminal Aerodrome Forecast
Issued by NWS

Home | Current Version | Previous Version | Text Only | Print | Product List | Glossary Off
Versions: 1 2 3 4 5 6 7 8 9 10 11 12 13 14 15 16 17 18 19

000
FTUS43 KICT 290520
TAFRSL
TAF
KRSL 290520Z 2906/3006 18010KT P6SM VCTS BKN020CB OVC080
      TEMPO 2906/2908 -TSRA
     FM291000 21010KT P6SM OVC120
     FM291900 23005KT P6SM BKN100=

USA.gov is the U.S. government's official web portal to all federal, state and local government web resources and services.